Crookston, MN

3:44 AM CST on December 18, 2017 (GMT -0600)
Crookston Municipal-Kirkwood

Weather History for KCKN - June, 2013

Change the Weather History Date:

Thursday, June 27, 2013

  Actual Average Record
Temperature  
Mean Temperature 73 °F -  
Max Temperature 82 °F 73 °F 89 °F (2001)
Min Temperature 64 °F 53 °F 33 °F (2002)
Cooling Degree Days 8    
Growing Degree Days 23 (Base 50)    
Moisture  
Dew Point 60 °F    
Average Humidity 68    
Maximum Humidity 88    
Minimum Humidity 39    
Precipitation  
Precipitation 0.00 in - - ()
Sea Level Pressure  
Sea Level Pressure 29.81 in    
Wind  
Wind Speed 11 mph (NW)    
Max Wind Speed 25 mph    
Max Gust Speed 34 mph    
Visibility 10 miles    
Events      
Averages and records for this station are not official NWS values.
T = Trace of Precipitation, MM = Missing Value Source: NWS Daily Summary

Daily Weather History Graph

Daily Weather History Graph

Search for Another Location

Airport or City:

Trip Planner

Search our weather history database for the weather conditions in past years. The results will help you decide how hot, cold, wet, or windy it might be!

Date:

Astronomy

Jun. 27, 2013 Rise Set
Actual Time 5:29 AM CDT 9:29 PM CDT
Civil Twilight 4:48 AM CDT 10:10 PM CDT
Nautical Twilight 3:51 AM CDT 11:06 PM CDT
Astronomical Twilight 2:18 AM CDT 12:39 AM CDT
Moon No Moon Rise 10:55 AM CDT (6/27)
Length of Visible Light 17h 21m
Length of Day
15h 59m
Waning Gibbous, 76% of the Moon is Illuminated
Jun 27
Waning Gibbous
Jun 29
Last Quarter
Jul 8
New
Jul 15
First Quarter
Jul 22
Full

Hourly Weather History & Observations

Time (CDT) Temp. Heat Index Dew Point Humidity Pressure Visibility Wind Dir Wind Speed Gust Speed Precip Events Conditions
12:14 AM 71.6 °F - 64.4 °F 78% 29.77 in 10.0 mi West 6.9 mph - N/A   Scattered Clouds
12:35 AM 69.8 °F - 64.4 °F 83% 29.77 in 10.0 mi West 6.9 mph - N/A   Clear
12:54 AM 69.8 °F - 64.4 °F 83% 29.77 in 10.0 mi WNW 4.6 mph - N/A   Scattered Clouds
1:14 AM 68.0 °F - 64.4 °F 88% 29.77 in 10.0 mi West 4.6 mph - N/A   Clear
1:35 AM 66.2 °F - 62.6 °F 88% 29.77 in 10.0 mi Calm Calm - N/A   Clear
1:54 AM 66.2 °F - 62.6 °F 88% 29.77 in 10.0 mi West 3.5 mph - N/A   Clear
2:15 AM 66.2 °F - 62.6 °F 88% 29.76 in 10.0 mi WSW 4.6 mph - N/A   Clear
2:35 AM 64.4 °F - 60.8 °F 88% 29.76 in 10.0 mi WSW 5.8 mph - N/A   Clear
2:54 AM 64.4 °F - 60.8 °F 88% 29.76 in 10.0 mi Calm Calm - N/A   Clear
3:15 AM 64.4 °F - 60.8 °F 88% 29.76 in 10.0 mi WSW 5.8 mph - N/A   Clear
3:35 AM 66.2 °F - 60.8 °F 83% 29.76 in 10.0 mi West 6.9 mph - N/A   Clear
3:54 AM 66.2 °F - 60.8 °F 83% 29.76 in 10.0 mi West 8.1 mph - N/A   Clear
4:15 AM 64.4 °F - 60.8 °F 88% 29.76 in 10.0 mi West 8.1 mph - N/A   Clear
4:34 AM 64.4 °F - 60.8 °F 88% 29.77 in 10.0 mi West 9.2 mph - N/A   Clear
4:54 AM 64.4 °F - 60.8 °F 88% 29.77 in 10.0 mi West 9.2 mph - N/A   Clear
5:15 AM 64.4 °F - 60.8 °F 88% 29.77 in 10.0 mi West 8.1 mph - N/A   Clear
5:35 AM 64.4 °F - 60.8 °F 88% 29.78 in 10.0 mi West 8.1 mph - N/A   Clear
5:54 AM 64.4 °F - 60.8 °F 88% 29.79 in 10.0 mi WNW 9.2 mph - N/A   Clear
6:15 AM 64.4 °F - 60.8 °F 88% 29.79 in 10.0 mi West 9.2 mph - N/A   Clear
6:34 AM 66.2 °F - 60.8 °F 83% 29.79 in 10.0 mi WNW 9.2 mph - N/A   Clear
6:54 AM 66.2 °F - 62.6 °F 88% 29.79 in 10.0 mi WNW 12.7 mph - N/A   Clear
7:15 AM 68.0 °F - 62.6 °F 83% 29.80 in 10.0 mi WNW 11.5 mph - N/A   Clear
7:34 AM 69.8 °F - 60.8 °F 73% 29.80 in 10.0 mi NW 15.0 mph 24.2 mph N/A   Clear
7:54 AM 69.8 °F - 62.6 °F 78% 29.81 in 10.0 mi WNW 15.0 mph 18.4 mph N/A   Clear
8:15 AM 69.8 °F - 60.8 °F 73% 29.81 in 10.0 mi NW 15.0 mph 20.7 mph N/A   Clear
8:34 AM 71.6 °F - 60.8 °F 69% 29.82 in 10.0 mi NW 15.0 mph - N/A   Clear
8:55 AM 71.6 °F - 62.6 °F 73% 29.82 in 10.0 mi NW 15.0 mph 23.0 mph N/A   Clear
9:15 AM 71.6 °F - 60.8 °F 69% 29.82 in 10.0 mi NW 17.3 mph 23.0 mph N/A   Clear
9:34 AM 73.4 °F - 62.6 °F 69% 29.82 in 10.0 mi NNW 16.1 mph 24.2 mph N/A   Clear
9:55 AM 73.4 °F - 62.6 °F 69% 29.83 in 10.0 mi NW 13.8 mph 19.6 mph N/A   Clear
10:14 AM 73.4 °F - 62.6 °F 69% 29.82 in 10.0 mi NNW 15.0 mph - N/A   Clear
10:34 AM 75.2 °F - 60.8 °F 61% 29.83 in 10.0 mi NW 17.3 mph - N/A   Clear
10:55 AM 75.2 °F - 62.6 °F 65% 29.83 in 10.0 mi NW 15.0 mph - N/A   Clear
11:14 AM 77.0 °F - 62.6 °F 61% 29.83 in 10.0 mi NW 16.1 mph - N/A   Clear
11:34 AM 78.8 °F - 62.6 °F 57% 29.83 in 10.0 mi WNW 17.3 mph - N/A   Clear
11:55 AM 78.8 °F - 62.6 °F 57% 29.83 in 10.0 mi NW 17.3 mph - N/A   Clear
12:14 PM 78.8 °F - 62.6 °F 57% 29.83 in 10.0 mi NW 19.6 mph 23.0 mph N/A   Scattered Clouds
12:34 PM 78.8 °F - 60.8 °F 54% 29.83 in 10.0 mi WNW 19.6 mph - N/A   Scattered Clouds
12:55 PM 80.6 °F 81.5 °F 60.8 °F 51% 29.82 in 10.0 mi NW 18.4 mph - N/A   Scattered Clouds
1:14 PM 80.6 °F 81.5 °F 60.8 °F 51% 29.82 in 10.0 mi NW 17.3 mph - N/A   Clear
1:34 PM 78.8 °F - 57.2 °F 47% 29.82 in 10.0 mi NW 17.3 mph 23.0 mph N/A   Scattered Clouds
1:55 PM 80.6 °F 81.1 °F 59.0 °F 48% 29.82 in 10.0 mi WNW 16.1 mph - N/A   Scattered Clouds
2:14 PM 80.6 °F 81.1 °F 59.0 °F 48% 29.81 in 10.0 mi NW 13.8 mph - N/A   Scattered Clouds
2:34 PM 80.6 °F 81.5 °F 60.8 °F 51% 29.81 in 10.0 mi WNW 15.0 mph 24.2 mph N/A   Scattered Clouds
2:55 PM 80.6 °F 81.5 °F 60.8 °F 51% 29.81 in 10.0 mi WNW 23.0 mph 27.6 mph N/A   Scattered Clouds
3:14 PM 82.4 °F 82.5 °F 59.0 °F 45% 29.80 in 10.0 mi WNW 19.6 mph 25.3 mph N/A   Scattered Clouds
3:35 PM 82.4 °F 82.9 °F 60.8 °F 48% 29.80 in 10.0 mi WNW 19.6 mph 23.0 mph N/A   Scattered Clouds
3:55 PM 82.4 °F 82.0 °F 57.2 °F 42% 29.79 in 10.0 mi WNW 24.2 mph 28.8 mph N/A   Scattered Clouds
4:14 PM 82.4 °F 82.0 °F 57.2 °F 42% 29.80 in 10.0 mi NW 19.6 mph 25.3 mph N/A   Scattered Clouds
4:35 PM 80.6 °F 81.1 °F 59.0 °F 48% 29.80 in 10.0 mi NW 18.4 mph 25.3 mph N/A   Scattered Clouds
4:55 PM 82.4 °F 81.7 °F 55.4 °F 39% 29.79 in 10.0 mi NW 25.3 mph 31.1 mph N/A   Clear
5:14 PM 82.4 °F 82.0 °F 57.2 °F 42% 29.80 in 10.0 mi NW 23.0 mph 32.2 mph N/A   Scattered Clouds
5:35 PM 82.4 °F 81.7 °F 55.4 °F 39% 29.80 in 10.0 mi NW 25.3 mph 32.2 mph N/A   Scattered Clouds
5:54 PM 82.4 °F 81.7 °F 55.4 °F 39% 29.80 in 10.0 mi NW 25.3 mph 34.5 mph N/A   Clear
6:14 PM 82.4 °F 81.7 °F 55.4 °F 39% 29.80 in 10.0 mi NW 18.4 mph 32.2 mph N/A   Clear
6:35 PM 80.6 °F 80.5 °F 55.4 °F 42% 29.81 in 10.0 mi NW 21.9 mph 32.2 mph N/A   Clear
6:54 PM 77.0 °F - 59.0 °F 54% 29.83 in 10.0 mi North 15.0 mph 29.9 mph N/A   Scattered Clouds
7:14 PM 78.8 °F - 59.0 °F 51% 29.84 in 10.0 mi NNW 13.8 mph 27.6 mph N/A   Clear
7:35 PM 77.0 °F - 55.4 °F 47% 29.84 in 10.0 mi North 19.6 mph 29.9 mph N/A   Clear
7:54 PM 75.2 °F - 55.4 °F 50% 29.84 in 10.0 mi NNW 15.0 mph 23.0 mph N/A   Clear
8:14 PM 75.2 °F - 59.0 °F 57% 29.85 in 10.0 mi NNW 13.8 mph - N/A   Clear
8:35 PM 73.4 °F - 59.0 °F 61% 29.85 in 10.0 mi North 17.3 mph 24.2 mph N/A   Clear
8:54 PM 73.4 °F - 59.0 °F 61% 29.85 in 10.0 mi NNW 10.4 mph - N/A   Clear
9:14 PM 69.8 °F - 60.8 °F 73% 29.85 in 10.0 mi NW 8.1 mph - N/A   Clear
9:35 PM 66.2 °F - 62.6 °F 88% 29.85 in 10.0 mi NNW 6.9 mph - N/A   Clear
9:54 PM 66.2 °F - 60.8 °F 83% 29.86 in 10.0 mi NW 6.9 mph - N/A   Clear
10:14 PM 64.4 °F - 60.8 °F 88% 29.86 in 10.0 mi NW 5.8 mph - N/A   Clear
10:35 PM 64.4 °F - 60.8 °F 88% 29.85 in 10.0 mi WNW 8.1 mph - N/A   Clear
10:54 PM 64.4 °F - 60.8 °F 88% 29.85 in 10.0 mi WNW 5.8 mph - N/A   Clear
11:14 PM 64.4 °F - 60.8 °F 88% 29.85 in 10.0 mi WNW 6.9 mph - N/A   Scattered Clouds
11:35 PM 64.4 °F - 59.0 °F 83% 29.85 in 10.0 mi NW 4.6 mph - N/A   Scattered Clouds
11:54 PM 64.4 °F - 59.0 °F 83% 29.86 in 10.0 mi NW 8.1 mph - N/A   Clear